Time;durP1;ratioP1;P1;durP2;ratioP2;P2;SDS_P1;SDS_P2;PMS_P1;PMS_P2;Temp;Humidity;BMP_temperature;BMP_pressure;BME280_temperature;BME280_humidity;BME280_pressure;Samples;Min_cycle;Max_cycle;Signal;HPM_P1;HPM_P2
2023/04/20 00:02:01;;;;;;;0.43;0.40;;;;;;;22.87;36.43;102194.13;5032600;27;97649;-76
2023/04/20 00:04:28;;;;;;;0.50;0.50;;;;;;;22.87;36.32;102185.91;5015463;28;96906;-76
2023/04/20 00:06:58;;;;;;;0.50;0.50;;;;;;;22.88;36.44;102186.78;5034105;27;96648;-76
2023/04/20 00:09:26;;;;;;;0.68;0.50;;;;;;;22.87;36.11;102182.31;5019937;27;96811;-76
2023/04/20 00:11:52;;;;;;;0.38;0.30;;;;;;;22.86;36.34;102181.47;5033270;28;97155;-76
2023/04/20 00:14:19;;;;;;;0.55;0.40;;;;;;;22.86;36.25;102167.75;5033257;27;97249;-76
2023/04/20 00:16:47;;;;;;;0.60;0.50;;;;;;;22.86;36.26;102167.75;5033210;28;97959;-76
2023/04/20 00:19:14;;;;;;;0.50;0.50;;;;;;;22.86;36.10;102155.94;5023173;27;96962;-76
2023/04/20 00:21:41;;;;;;;0.55;0.40;;;;;;;22.85;36.40;102149.59;5026929;28;96769;-76
2023/04/20 00:24:08;;;;;;;0.60;0.47;;;;;;;22.84;36.20;102145.16;5014936;28;96800;-76
2023/04/20 00:26:34;;;;;;;0.50;0.43;;;;;;;22.85;36.36;102143.28;5019300;28;96970;-76
2023/04/20 00:29:01;;;;;;;0.88;0.40;;;;;;;22.84;36.53;102139.66;5027650;28;96953;-77
2023/04/20 00:31:30;;;;;;;0.52;0.40;;;;;;;22.85;36.29;102137.78;5023118;28;99109;-76
2023/04/20 00:33:57;;;;;;;0.50;0.50;;;;;;;22.82;36.11;102128.00;5014954;28;97776;-76
2023/04/20 00:36:23;;;;;;;0.50;0.40;;;;;;;22.83;36.23;102130.59;5031477;28;96739;-76
2023/04/20 00:38:50;;;;;;;0.50;0.40;;;;;;;22.83;36.11;102125.09;5031988;28;96702;-76
2023/04/20 00:41:16;;;;;;;1.08;0.40;;;;;;;22.83;36.39;102122.38;5022843;28;97688;-76
2023/04/20 00:43:51;;;;;;;0.75;0.50;;;;;;;22.83;36.20;102119.63;5025748;28;97104;-76
2023/04/20 00:46:18;;;;;;;;;;;;;;;22.78;36.38;102107.41;5024497;28;96793;-76
2023/04/20 00:48:46;;;;;;;0.50;0.40;;;;;;;22.77;36.30;102111.16;5027656;28;96845;-76
2023/04/20 00:51:13;;;;;;;0.63;0.60;;;;;;;22.78;36.53;102112.88;5014291;28;97027;-76
2023/04/20 00:53:40;;;;;;;0.75;0.60;;;;;;;22.79;36.18;102111.84;5014538;28;100562;-76
2023/04/20 00:56:07;;;;;;;0.50;0.50;;;;;;;22.78;36.19;102111.00;5012443;28;97879;-76
2023/04/20 00:58:33;;;;;;;0.40;0.38;;;;;;;22.78;36.25;102097.31;5014873;28;97193;-76
2023/04/20 01:01:00;;;;;;;0.40;0.30;;;;;;;22.77;36.74;102092.84;5017619;28;98058;-76
2023/04/20 01:03:26;;;;;;;0.60;0.52;;;;;;;22.78;36.25;102085.47;5008384;28;97656;-76
2023/04/20 01:05:53;;;;;;;0.47;0.40;;;;;;;22.78;36.35;102075.38;5023784;28;96852;-76
2023/04/20 01:08:24;;;;;;;0.68;0.50;;;;;;;22.78;36.41;102067.16;5018878;27;96595;-76
2023/04/20 01:10:51;;;;;;;0.50;0.30;;;;;;;22.77;36.36;102070.06;5002959;28;98535;-76
2023/04/20 01:13:17;;;;;;;0.75;0.40;;;;;;;22.76;36.20;102066.47;5011924;28;97038;-76
2023/04/20 01:15:44;;;;;;;0.70;0.50;;;;;;;22.77;36.20;102062.72;5003342;28;96836;-75
2023/04/20 01:18:11;;;;;;;0.50;0.47;;;;;;;22.76;36.30;102058.25;5033025;27;97121;-76
2023/04/20 01:20:37;;;;;;;0.50;0.30;;;;;;;22.77;36.07;102051.75;5031966;28;97420;-76
2023/04/20 01:23:04;;;;;;;0.70;0.50;;;;;;;22.77;36.47;102054.50;5030703;27;96810;-76
2023/04/20 01:25:30;;;;;;;0.40;0.40;;;;;;;22.76;36.34;102047.28;5017172;27;97335;-76
2023/04/20 01:27:57;;;;;;;0.50;0.40;;;;;;;22.76;36.05;102036.34;5033347;27;97106;-76
2023/04/20 01:30:24;;;;;;;0.50;0.50;;;;;;;22.77;36.21;102037.19;5016292;27;97781;-76
2023/04/20 01:32:50;;;;;;;0.40;0.40;;;;;;;22.75;36.12;102031.88;5013717;28;98370;-76
2023/04/20 01:35:17;;;;;;;0.60;0.50;;;;;;;22.74;36.25;102021.94;5032407;27;96798;-76
2023/04/20 01:37:44;;;;;;;0.60;0.40;;;;;;;22.76;36.39;102021.78;5023573;28;96867;-76
2023/04/20 01:40:12;;;;;;;0.50;0.43;;;;;;;22.75;36.17;102009.97;5010445;28;97020;-76
2023/04/20 01:42:39;;;;;;;0.50;0.40;;;;;;;22.74;36.21;102011.00;5032168;28;97190;-76
2023/04/20 01:45:07;;;;;;;0.50;0.40;;;;;;;22.74;36.44;102007.41;5018295;28;96600;-76
2023/04/20 01:47:34;;;;;;;0.68;0.45;;;;;;;22.74;36.04;102005.53;5029001;28;96937;-76
2023/04/20 01:50:00;;;;;;;0.50;0.40;;;;;;;22.73;36.22;102001.06;5030231;28;98976;-76
2023/04/20 01:52:27;;;;;;;0.50;0.43;;;;;;;22.73;36.31;102002.94;5031613;27;96979;-76
2023/04/20 01:54:53;;;;;;;0.40;0.30;;;;;;;22.73;36.41;101994.72;5013817;28;96910;-76
2023/04/20 01:57:23;;;;;;;0.60;0.40;;;;;;;22.72;36.35;101990.28;5030383;28;96902;-76
2023/04/20 01:59:50;;;;;;;0.43;0.30;;;;;;;22.72;36.52;101990.28;5013831;28;100531;-76
2023/04/20 02:02:16;;;;;;;0.60;0.45;;;;;;;22.71;36.38;101994.03;5031093;27;97200;-76
2023/04/20 02:04:43;;;;;;;0.55;0.40;;;;;;;22.71;36.41;101994.88;5015891;28;96830;-76
2023/04/20 02:07:10;;;;;;;0.57;0.40;;;;;;;22.71;36.32;101988.53;5032317;27;96869;-76
2023/04/20 02:09:37;;;;;;;0.50;0.40;;;;;;;22.69;36.30;101983.22;5017743;27;98131;-76
2023/04/20 02:12:04;;;;;;;0.50;0.40;;;;;;;22.70;36.15;101982.22;5020954;28;100232;-76
2023/04/20 02:14:31;;;;;;;0.55;0.40;;;;;;;22.71;36.23;101985.81;5023985;28;96896;-76
2023/04/20 02:16:58;;;;;;;0.35;0.30;;;;;;;22.69;35.99;101985.97;5017922;28;97121;-76
2023/04/20 02:19:24;;;;;;;0.43;0.40;;;;;;;22.69;36.14;101975.03;5030001;27;98654;-76
2023/04/20 02:21:51;;;;;;;0.70;0.50;;;;;;;22.70;36.40;101978.63;5012695;28;99459;-76
2023/04/20 02:24:17;;;;;;;0.40;0.30;;;;;;;22.69;36.63;101979.63;5028871;27;96871;-76
2023/04/20 02:26:44;;;;;;;0.60;0.50;;;;;;;22.69;36.51;101975.03;5030435;28;97078;-76
2023/04/20 02:29:10;;;;;;;0.47;0.40;;;;;;;22.69;36.14;101982.38;5031450;27;97811;-76
2023/04/20 02:31:37;;;;;;;0.30;0.30;;;;;;;22.68;36.42;101975.19;5015804;28;96713;-76
2023/04/20 02:34:05;;;;;;;0.73;0.43;;;;;;;22.69;36.36;101975.03;5030070;27;97076;-76
2023/04/20 02:36:31;;;;;;;0.70;0.50;;;;;;;22.68;36.29;101975.19;5029933;28;96905;-76
2023/04/20 02:38:58;;;;;;;0.43;0.32;;;;;;;22.68;36.18;101973.28;4999485;28;99777;-76
2023/04/20 02:41:25;;;;;;;0.50;0.50;;;;;;;22.67;36.17;101968.84;5012834;28;99470;-76
2023/04/20 02:43:52;;;;;;;0.40;0.40;;;;;;;22.67;35.97;101965.25;5029707;28;97068;-76
2023/04/20 02:46:19;;;;;;;0.40;0.40;;;;;;;22.67;36.52;101954.28;5029681;27;96652;-76
2023/04/20 02:48:46;;;;;;;0.40;0.30;;;;;;;22.66;36.24;101950.69;5009957;28;96602;-76
2023/04/20 02:51:13;;;;;;;0.38;0.30;;;;;;;22.66;36.18;101942.47;4998939;28;96777;-76
2023/04/20 02:53:43;;;;;;;0.40;0.35;;;;;;;22.66;36.54;101938.88;5009673;28;96778;-76
2023/04/20 02:56:18;;;;;;;0.40;0.32;;;;;;;22.65;36.26;101935.28;5003976;28;96657;-75
2023/04/20 02:58:51;;;;;;;0.40;0.35;;;;;;;22.64;36.30;101928.09;5027511;28;97158;-76
2023/04/20 03:01:29;;;;;;;0.75;0.40;;;;;;;22.65;36.32;101934.44;5019002;28;97657;-76
2023/04/20 03:04:03;;;;;;;0.50;0.40;;;;;;;22.64;36.23;101935.44;5012004;27;96694;-76
2023/04/20 03:06:35;;;;;;;0.60;0.45;;;;;;;22.64;36.22;101938.19;5013202;28;96937;-76
2023/04/20 03:09:04;;;;;;;0.40;0.40;;;;;;;22.63;36.45;101925.50;5013617;28;98372;-76
2023/04/20 03:11:54;;;;;;;0.40;0.40;;;;;;;22.62;36.21;101930.13;5026304;28;96692;-76
2023/04/20 03:14:38;;;;;;;0.40;0.40;;;;;;;22.61;36.63;101933.88;5014971;28;97065;-76
2023/04/20 03:17:05;;;;;;;0.47;0.40;;;;;;;22.61;36.05;101931.16;5031018;28;96887;-76
2023/04/20 03:19:32;;;;;;;0.77;0.40;;;;;;;22.61;36.48;101922.94;5012054;28;97018;-76
2023/04/20 03:21:58;;;;;;;0.50;0.40;;;;;;;22.60;36.55;101926.69;4999020;28;98887;-75
2023/04/20 03:24:25;;;;;;;0.55;0.40;;;;;;;22.60;36.26;101915.75;5029036;28;96679;-76
2023/04/20 03:26:53;;;;;;;0.80;0.50;;;;;;;22.60;36.62;101907.53;5012692;28;97138;-76
2023/04/20 03:29:30;;;;;;;0.50;0.50;;;;;;;22.61;36.21;101905.66;5000804;28;96846;-76
2023/04/20 03:31:58;;;;;;;0.50;0.40;;;;;;;22.59;36.42;101905.81;5013930;28;97433;-76
2023/04/20 03:34:25;;;;;;;0.57;0.40;;;;;;;22.60;36.54;101907.53;5029259;28;96958;-76
2023/04/20 03:36:52;;;;;;;0.63;0.40;;;;;;;22.59;36.33;101911.28;5033718;27;96759;-76
2023/04/20 03:39:19;;;;;;;0.40;0.40;;;;;;;22.58;36.49;101909.56;5033474;28;97326;-76
2023/04/20 03:41:46;;;;;;;0.52;0.43;;;;;;;22.59;36.37;101892.13;5032475;28;97317;-76
2023/04/20 03:44:13;;;;;;;0.40;0.40;;;;;;;22.59;36.41;101896.75;5032757;28;98826;-75
2023/04/20 03:46:40;;;;;;;0.47;0.30;;;;;;;22.59;36.14;101899.47;5016254;28;96800;-76
2023/04/20 03:49:07;;;;;;;0.47;0.40;;;;;;;22.58;36.44;101903.22;5032555;28;96662;-76
2023/04/20 03:51:33;;;;;;;0.50;0.40;;;;;;;22.58;36.43;101898.63;5031645;28;98013;-76
2023/04/20 03:54:00;;;;;;;0.40;0.30;;;;;;;22.57;36.41;101894.16;5018342;28;96499;-76
2023/04/20 03:56:27;;;;;;;0.55;0.55;;;;;;;22.58;36.51;101900.50;5034116;28;96710;-76
2023/04/20 03:58:55;;;;;;;0.68;0.40;;;;;;;22.57;36.41;101905.13;5015442;28;97998;-76
2023/04/20 04:01:24;;;;;;;0.47;0.40;;;;;;;22.57;36.20;101893.31;5032458;28;98113;-76
2023/04/20 04:03:51;;;;;;;0.75;0.40;;;;;;;22.56;36.26;101884.22;5020762;28;97030;-76
2023/04/20 04:06:18;;;;;;;0.80;0.50;;;;;;;22.56;36.50;101883.38;5029873;28;96977;-76
2023/04/20 04:08:44;;;;;;;0.50;0.40;;;;;;;22.56;36.25;101878.75;5032179;28;96565;-76
2023/04/20 04:11:11;;;;;;;0.50;0.40;;;;;;;22.56;36.54;101876.00;5031606;27;96718;-76
2023/04/20 04:13:38;;;;;;;0.50;0.40;;;;;;;22.56;36.39;101869.69;5032422;28;97017;-76
2023/04/20 04:16:07;;;;;;;0.60;0.43;;;;;;;22.55;36.34;101863.34;5031961;28;97332;-76
2023/04/20 04:18:34;;;;;;;0.30;0.30;;;;;;;22.55;36.23;101862.50;5015202;28;99301;-76
2023/04/20 04:21:09;;;;;;;0.57;0.47;;;;;;;22.54;36.28;101867.09;5031695;28;96737;-76
2023/04/20 04:23:37;;;;;;;0.50;0.40;;;;;;;22.54;36.21;101847.94;5015768;28;96738;-75
2023/04/20 04:26:12;;;;;;;0.50;0.40;;;;;;;22.53;36.11;101848.97;5016391;28;96878;-76
2023/04/20 04:28:44;;;;;;;0.47;0.40;;;;;;;22.52;36.44;101841.78;5031520;27;97171;-76
2023/04/20 04:31:18;;;;;;;0.50;0.38;;;;;;;22.51;36.49;101853.75;5031435;28;96953;-76
2023/04/20 04:33:45;;;;;;;0.35;0.30;;;;;;;22.51;36.44;101856.47;5031936;28;96723;-76
2023/04/20 04:36:20;;;;;;;0.40;0.30;;;;;;;22.51;36.28;101848.28;5032488;27;96989;-76
2023/04/20 04:38:47;;;;;;;0.60;0.40;;;;;;;22.51;36.62;101846.38;5016572;27;98495;-76
2023/04/20 04:41:14;;;;;;;0.70;0.50;;;;;;;22.51;36.56;101840.06;5030216;28;97883;-76
2023/04/20 04:43:42;;;;;;;0.55;0.40;;;;;;;22.51;36.30;101845.53;5030548;27;97086;-75
2023/04/20 04:46:19;;;;;;;0.47;0.30;;;;;;;22.51;36.69;101834.59;5030937;27;96849;-76
2023/04/20 04:48:46;;;;;;;0.50;0.38;;;;;;;22.52;36.61;101842.63;5013684;28;99146;-76
2023/04/20 04:51:13;;;;;;;0.40;0.30;;;;;;;22.52;36.55;101839.03;5030967;28;99559;-75
2023/04/20 04:53:43;;;;;;;0.52;0.35;;;;;;;22.51;36.37;101838.19;5031286;27;96924;-76
2023/04/20 04:56:12;;;;;;;0.30;0.30;;;;;;;22.50;36.19;101830.97;5031348;28;96778;-76
2023/04/20 04:58:38;;;;;;;0.50;0.40;;;;;;;22.52;36.29;101833.56;5032662;28;99677;-76
2023/04/20 05:01:05;;;;;;;0.63;0.28;;;;;;;22.52;36.54;101834.41;5026556;27;97627;-76
2023/04/20 05:03:31;;;;;;;0.50;0.40;;;;;;;22.53;36.49;101838.00;5015909;28;96783;-76
2023/04/20 05:05:58;;;;;;;0.40;0.30;;;;;;;22.52;36.43;101834.41;5027853;28;96865;-76
2023/04/20 05:08:24;;;;;;;0.60;0.40;;;;;;;22.54;36.33;101833.41;5014144;28;97622;-76
2023/04/20 05:10:51;;;;;;;0.40;0.32;;;;;;;22.53;36.46;101829.81;5019208;27;96802;-76
2023/04/20 05:13:18;;;;;;;0.47;0.35;;;;;;;22.54;36.46;101826.03;5025520;28;96860;-76
2023/04/20 05:15:44;;;;;;;0.50;0.45;;;;;;;22.55;36.30;101835.13;5006040;28;96998;-76
2023/04/20 05:18:11;;;;;;;0.38;0.30;;;;;;;22.55;36.33;101835.13;5001273;28;98982;-76
2023/04/20 05:20:37;;;;;;;0.50;0.40;;;;;;;22.55;36.46;101835.97;5012038;28;97423;-76
2023/04/20 05:23:04;;;;;;;0.60;0.40;;;;;;;22.55;36.42;101832.38;5000187;28;96715;-76
2023/04/20 05:25:31;;;;;;;0.82;0.43;;;;;;;22.55;36.33;101830.50;5012624;28;97151;-76
2023/04/20 05:27:58;;;;;;;0.28;0.25;;;;;;;22.56;36.32;101837.69;5020372;28;96975;-76
2023/04/20 05:30:24;;;;;;;0.75;0.50;;;;;;;22.55;36.45;101827.75;5016528;27;98486;-76
2023/04/20 05:32:51;;;;;;;0.63;0.40;;;;;;;22.56;36.40;101832.22;5016093;28;96887;-76
2023/04/20 05:35:19;;;;;;;0.40;0.30;;;;;;;22.57;36.57;101822.13;5010859;28;96834;-76
2023/04/20 05:37:46;;;;;;;0.50;0.40;;;;;;;22.56;36.53;101821.25;5010293;28;96686;-76
2023/04/20 05:40:14;;;;;;;0.50;0.40;;;;;;;22.56;36.46;101829.47;5010329;28;98373;-76
2023/04/20 05:42:40;;;;;;;0.60;0.50;;;;;;;22.56;36.42;101821.25;5012250;28;97266;-76
2023/04/20 05:45:07;;;;;;;0.40;0.40;;;;;;;22.56;36.08;101818.53;5009889;28;96842;-76
2023/04/20 05:47:34;;;;;;;0.40;0.32;;;;;;;22.56;36.34;101821.25;5018097;28;97411;-76
2023/04/20 05:50:01;;;;;;;1.15;0.43;;;;;;;22.57;36.35;101822.13;5010862;28;96796;-76
2023/04/20 05:52:27;;;;;;;0.43;0.20;;;;;;;22.56;36.07;101810.31;5010687;28;96797;-76
2023/04/20 05:54:54;;;;;;;0.65;0.40;;;;;;;22.56;36.45;101810.31;5012047;28;96759;-76
2023/04/20 05:57:23;;;;;;;0.30;0.20;;;;;;;22.56;36.37;101818.53;5015373;28;97675;-76
2023/04/20 05:59:50;;;;;;;0.57;0.38;;;;;;;22.56;36.09;101818.53;5018092;28;96927;-75
2023/04/20 06:02:16;;;;;;;0.45;0.40;;;;;;;22.56;36.35;101815.78;5014060;28;97139;-75
2023/04/20 06:04:43;;;;;;;0.50;0.40;;;;;;;22.57;36.45;101816.66;5013014;28;96853;-75
2023/04/20 06:07:10;;;;;;;0.73;0.50;;;;;;;22.57;36.47;101816.66;5022624;28;97584;-75
2023/04/20 06:09:36;;;;;;;0.43;0.30;;;;;;;22.56;36.26;101823.13;5017639;28;96981;-76
2023/04/20 06:12:03;;;;;;;0.40;0.30;;;;;;;22.56;36.17;101821.25;5030500;27;97111;-75
2023/04/20 06:14:30;;;;;;;0.43;0.30;;;;;;;22.55;36.25;101824.16;5018340;27;96689;-75
2023/04/20 06:16:56;;;;;;;0.50;0.40;;;;;;;22.56;35.92;101820.41;5031750;28;97780;-75
2023/04/20 06:19:23;;;;;;;0.43;0.30;;;;;;;22.55;36.02;101816.81;5029853;28;96682;-76
2023/04/20 06:21:49;;;;;;;0.50;0.40;;;;;;;22.54;36.29;101815.09;5031079;27;96941;-76
2023/04/20 06:24:16;;;;;;;0.47;0.30;;;;;;;22.54;36.54;101815.09;5030582;28;97546;-76
2023/04/20 06:26:42;;;;;;;0.52;0.40;;;;;;;22.54;36.33;101806.88;5012935;28;100068;-76
2023/04/20 06:29:09;;;;;;;0.65;0.40;;;;;;;22.53;36.46;101805.16;5022089;27;97152;-75
2023/04/20 06:31:35;;;;;;;0.40;0.40;;;;;;;22.54;36.06;101801.41;5024187;28;96697;-76
2023/04/20 06:34:02;;;;;;;0.40;0.30;;;;;;;22.53;36.08;101805.16;5011553;28;97212;-76
2023/04/20 06:36:29;;;;;;;0.52;0.52;;;;;;;22.53;36.27;101810.63;5024155;28;97635;-76
2023/04/20 06:38:56;;;;;;;0.40;0.40;;;;;;;22.52;36.29;101820.72;5016526;28;98878;-76
2023/04/20 06:41:22;;;;;;;0.60;0.50;;;;;;;22.52;36.28;101809.78;5029941;27;96729;-76
2023/04/20 06:43:49;;;;;;;0.45;0.35;;;;;;;22.53;36.35;101810.63;5030197;28;97625;-76
2023/04/20 06:46:16;;;;;;;0.40;0.40;;;;;;;22.52;36.24;101808.91;5029987;28;99771;-76
2023/04/20 06:48:43;;;;;;;0.82;0.45;;;;;;;22.52;36.33;101806.19;5031072;27;97852;-76
2023/04/20 06:51:11;;;;;;;0.47;0.47;;;;;;;22.54;36.46;101811.50;5029754;28;97001;-76
2023/04/20 06:53:38;;;;;;;0.65;0.60;;;;;;;22.52;36.41;101809.78;5029855;28;96923;-76
2023/04/20 06:56:05;;;;;;;0.55;0.40;;;;;;;22.52;36.06;101806.19;5029256;27;97568;-76
2023/04/20 06:58:32;;;;;;;0.40;0.30;;;;;;;22.53;36.34;101807.91;5029472;27;98133;-76
2023/04/20 07:00:58;;;;;;;0.40;0.38;;;;;;;22.52;36.13;101792.50;5028799;28;97394;-76
2023/04/20 07:03:24;;;;;;;0.38;0.30;;;;;;;22.52;36.30;101803.44;5023882;27;97229;-76
2023/04/20 07:05:51;;;;;;;0.30;0.30;;;;;;;22.53;36.05;101802.44;5024392;28;97517;-76
2023/04/20 07:08:19;;;;;;;0.40;0.30;;;;;;;22.54;35.81;101808.75;5016792;28;96783;-76
2023/04/20 07:10:45;;;;;;;0.40;0.32;;;;;;;22.53;36.34;101805.16;5028524;28;96719;-76
2023/04/20 07:13:11;;;;;;;0.43;0.30;;;;;;;22.51;36.41;101802.59;5029379;28;96924;-76
2023/04/20 07:15:38;;;;;;;0.50;0.40;;;;;;;22.53;36.06;101802.44;5030138;28;98135;-76
2023/04/20 07:18:05;;;;;;;0.40;0.35;;;;;;;22.53;35.93;101802.44;5028051;28;97029;-76
2023/04/20 07:20:32;;;;;;;0.50;0.40;;;;;;;22.54;36.08;101800.53;5019674;28;96846;-76
2023/04/20 07:22:58;;;;;;;0.60;0.40;;;;;;;22.52;36.16;101796.09;5030900;27;97106;-76
2023/04/20 07:25:25;;;;;;;0.47;0.40;;;;;;;22.54;36.38;101792.34;5022051;28;98420;-75
2023/04/20 07:27:51;;;;;;;0.47;0.40;;;;;;;22.53;36.15;101796.94;5022401;28;97586;-76
2023/04/20 07:30:18;;;;;;;0.35;0.30;;;;;;;22.52;36.09;101790.63;5030582;28;96982;-76
2023/04/20 07:32:44;;;;;;;0.50;0.47;;;;;;;22.55;36.12;101785.84;5029521;28;97415;-76
2023/04/20 07:35:11;;;;;;;0.60;0.40;;;;;;;22.54;36.16;101795.06;5029783;28;97526;-75
2023/04/20 07:37:37;;;;;;;0.40;0.30;;;;;;;22.54;36.02;101797.81;5029336;28;97108;-75
2023/04/20 07:40:05;;;;;;;0.50;0.40;;;;;;;22.54;36.46;101804.13;5031044;27;97559;-76
2023/04/20 07:42:33;;;;;;;0.50;0.40;;;;;;;22.55;36.28;101797.66;5030101;27;96668;-76
2023/04/20 07:45:00;;;;;;;0.38;0.35;;;;;;;22.56;36.03;101803.97;5029523;28;97669;-76
2023/04/20 07:47:26;;;;;;;0.60;0.50;;;;;;;22.55;36.29;101796.78;5030115;27;96724;-76
2023/04/20 07:49:53;;;;;;;0.63;0.50;;;;;;;22.55;36.32;101805.84;5029208;28;96952;-76
2023/04/20 07:52:20;;;;;;;0.55;0.47;;;;;;;22.56;36.31;101804.84;5029429;28;96895;-76
2023/04/20 07:54:46;;;;;;;0.40;0.40;;;;;;;22.56;36.29;101802.09;5030027;28;96926;-76
2023/04/20 07:57:14;;;;;;;0.50;0.40;;;;;;;22.56;36.01;101802.09;5028185;27;97258;-76
2023/04/20 07:59:40;;;;;;;0.50;0.40;;;;;;;22.56;36.29;101810.31;5028687;27;96707;-75
2023/04/20 08:02:07;;;;;;;0.50;0.50;;;;;;;22.57;35.95;101813.91;5028441;28;96861;-76
2023/04/20 08:04:36;;;;;;;0.50;0.40;;;;;;;22.57;36.01;101805.69;5014107;28;100026;-76
2023/04/20 08:07:04;;;;;;;0.50;0.40;;;;;;;22.57;36.17;101803.81;5018467;28;96998;-76
2023/04/20 08:09:30;;;;;;;0.50;0.40;;;;;;;22.56;35.97;101804.84;5024296;28;96846;-76
2023/04/20 08:11:57;;;;;;;0.80;0.40;;;;;;;22.56;36.09;101804.84;5013178;28;96818;-76
2023/04/20 08:14:23;;;;;;;0.50;0.40;;;;;;;22.56;36.28;101804.84;5024994;28;98031;-76
2023/04/20 08:16:50;;;;;;;0.40;0.40;;;;;;;22.55;36.29;101794.91;5015699;28;97940;-76
2023/04/20 08:19:16;;;;;;;0.88;0.52;;;;;;;22.56;35.93;101799.34;5017910;28;97090;-76
2023/04/20 08:21:43;;;;;;;0.50;0.50;;;;;;;22.56;35.93;101787.56;5027407;27;96679;-76
2023/04/20 08:24:11;;;;;;;0.68;0.40;;;;;;;22.55;36.39;101789.44;5031977;28;96761;-76
2023/04/20 08:26:38;;;;;;;0.80;0.40;;;;;;;22.56;36.01;101798.50;5019535;27;97215;-76
2023/04/20 08:29:04;;;;;;;0.50;0.50;;;;;;;22.55;36.05;101786.69;5033523;28;96730;-76
2023/04/20 08:31:31;;;;;;;0.55;0.50;;;;;;;22.54;36.33;101776.75;5032103;28;97068;-76
2023/04/20 08:33:58;;;;;;;0.50;0.50;;;;;;;22.53;35.76;101791.47;5033049;27;96643;-76
2023/04/20 08:36:26;;;;;;;0.47;0.40;;;;;;;22.55;35.79;101785.84;5031800;28;97627;-76
2023/04/20 08:39:04;;;;;;;0.50;0.40;;;;;;;22.55;36.14;101799.53;5017899;28;97026;-76
2023/04/20 08:41:31;;;;;;;0.50;0.40;;;;;;;22.54;36.24;101781.38;5019908;28;97067;-76
2023/04/20 08:43:58;;;;;;;0.50;0.40;;;;;;;22.54;36.08;101784.13;5031219;28;99767;-76
2023/04/20 08:46:24;;;;;;;0.55;0.40;;;;;;;22.55;36.11;101780.34;5031138;27;97584;-76
2023/04/20 08:48:53;;;;;;;0.68;0.52;;;;;;;22.54;35.90;101773.16;5031100;28;96755;-76
2023/04/20 08:51:21;;;;;;;0.32;0.30;;;;;;;22.55;36.11;101780.34;5021687;28;96894;-76
2023/04/20 08:53:47;;;;;;;0.40;0.30;;;;;;;22.54;36.02;101782.25;5029165;28;97594;-76
2023/04/20 08:56:14;;;;;;;0.52;0.50;;;;;;;22.54;35.98;101770.44;5023613;27;97392;-76
2023/04/20 08:58:43;;;;;;;0.50;0.40;;;;;;;22.53;36.13;101777.78;5012397;28;97023;-76
2023/04/20 09:01:11;;;;;;;0.75;0.50;;;;;;;22.54;35.86;101776.75;5024217;28;96822;-76
2023/04/20 09:03:43;;;;;;;0.40;0.40;;;;;;;22.52;36.11;101778.81;4999089;28;97116;-76
2023/04/20 09:06:15;;;;;;;0.90;0.40;;;;;;;22.54;35.91;101775.91;5025778;28;96777;-76
2023/04/20 09:08:42;;;;;;;0.32;0.32;;;;;;;22.53;36.31;101769.56;5021115;28;96850;-76
2023/04/20 09:11:22;;;;;;;0.73;0.40;;;;;;;22.54;36.21;101773.16;5029926;28;96765;-76
2023/04/20 09:14:05;;;;;;;0.38;0.35;;;;;;;22.52;36.30;101765.97;5003174;28;98113;-76
2023/04/20 09:16:33;;;;;;;0.43;0.32;;;;;;;22.51;35.94;101768.88;5017044;28;96748;-76
2023/04/20 09:19:00;;;;;;;0.77;0.50;;;;;;;22.51;36.16;101763.41;5014777;28;96659;-76
2023/04/20 09:21:27;;;;;;;0.45;0.38;;;;;;;22.53;35.99;101775.03;5030805;27;96847;-76
2023/04/20 09:24:05;;;;;;;0.50;0.47;;;;;;;22.52;36.15;101765.97;5031150;28;97731;-76
2023/04/20 09:26:33;;;;;;;0.50;0.40;;;;;;;22.52;35.91;101765.13;5029590;28;97508;-76
2023/04/20 09:29:14;;;;;;;0.50;0.35;;;;;;;22.53;36.12;101766.84;5032562;27;97157;-76
2023/04/20 09:31:41;;;;;;;0.40;0.40;;;;;;;22.51;36.03;101767.00;5031677;28;96735;-76
2023/04/20 09:34:07;;;;;;;0.60;0.50;;;;;;;22.51;36.37;101767.00;5031493;27;97644;-75
2023/04/20 09:36:39;;;;;;;0.40;0.40;;;;;;;22.53;35.87;101758.63;5030097;28;98666;-76
2023/04/20 09:39:17;;;;;;;0.50;0.40;;;;;;;22.52;36.29;101755.03;5019980;28;96548;-76
2023/04/20 09:41:43;;;;;;;0.80;0.50;;;;;;;22.51;35.92;101753.31;5016602;27;96594;-76
2023/04/20 09:44:11;;;;;;;0.57;0.40;;;;;;;22.52;35.82;101751.44;5031748;28;96876;-76
2023/04/20 09:46:40;;;;;;;0.30;0.30;;;;;;;22.52;35.87;101754.16;5030495;28;96771;-76
2023/04/20 09:49:09;;;;;;;0.30;0.30;;;;;;;22.52;36.05;101755.03;5012046;28;96678;-76
2023/04/20 09:51:37;;;;;;;0.43;0.30;;;;;;;22.52;35.92;101751.44;5002960;28;97013;-76
2023/04/20 09:54:05;;;;;;;0.40;0.40;;;;;;;22.52;36.03;101759.66;5009856;28;99469;-76
2023/04/20 09:56:34;;;;;;;0.65;0.50;;;;;;;22.51;35.93;101747.84;5023418;28;96611;-76
2023/04/20 09:59:02;;;;;;;0.40;0.40;;;;;;;22.52;36.04;101751.44;5032177;27;96672;-76
2023/04/20 10:01:33;;;;;;;0.70;0.40;;;;;;;22.51;36.28;101749.72;5014285;28;97396;-76
2023/04/20 10:04:02;;;;;;;0.50;0.40;;;;;;;22.51;36.05;101745.09;5018936;27;97841;-76
2023/04/20 10:06:31;;;;;;;0.60;0.40;;;;;;;22.51;35.98;101741.50;5029768;28;97350;-76
2023/04/20 10:09:01;;;;;;;0.65;0.50;;;;;;;22.51;36.13;101738.78;5014235;28;97155;-76
2023/04/20 10:11:30;;;;;;;0.70;0.50;;;;;;;22.51;35.97;101736.88;5030080;28;97203;-76
2023/04/20 10:14:23;;;;;;;0.57;0.43;;;;;;;22.52;36.13;101740.47;5031245;27;97760;-76
2023/04/20 10:17:02;;;;;;;0.50;0.40;;;;;;;22.51;36.10;101742.38;5030335;28;96854;-76
2023/04/20 10:19:44;;;;;;;0.28;0.20;;;;;;;22.50;35.93;101729.69;5030670;28;96658;-76
2023/04/20 10:22:23;;;;;;;0.60;0.40;;;;;;;22.50;35.93;101734.31;5030767;28;96662;-76
2023/04/20 10:24:50;;;;;;;0.68;0.45;;;;;;;22.49;36.21;101724.38;5029798;27;97662;-75
2023/04/20 10:27:18;;;;;;;0.50;0.40;;;;;;;22.50;35.95;101728.84;5030898;27;97392;-76
2023/04/20 10:29:45;;;;;;;0.50;0.40;;;;;;;22.50;36.17;101723.38;5015791;28;97146;-76
2023/04/20 10:32:27;;;;;;;0.43;0.40;;;;;;;22.49;35.81;101717.03;5024395;28;96574;-76
2023/04/20 10:35:09;;;;;;;0.30;0.30;;;;;;;22.51;36.18;101716.88;5023820;28;97523;-76
2023/04/20 10:37:49;;;;;;;0.70;0.50;;;;;;;22.51;36.25;101712.25;5018702;28;97586;-76
2023/04/20 10:40:25;;;;;;;0.40;0.40;;;;;;;22.51;36.00;101708.66;5030030;28;97325;-76
2023/04/20 10:42:52;;;;;;;0.30;0.30;;;;;;;22.51;36.17;101697.69;5030254;28;96624;-76
2023/04/20 10:45:20;;;;;;;1.10;0.40;;;;;;;22.53;36.18;101698.41;5028370;28;97967;-76
2023/04/20 10:47:47;;;;;;;0.47;0.40;;;;;;;22.53;35.98;101695.66;5004133;28;98316;-76
2023/04/20 10:50:14;;;;;;;0.70;0.50;;;;;;;22.55;35.84;101700.97;5024935;28;96687;-76
2023/04/20 10:52:43;;;;;;;0.52;0.40;;;;;;;22.56;35.91;101698.06;5022277;27;96921;-76
2023/04/20 10:55:21;;;;;;;0.40;0.40;;;;;;;22.56;36.04;101708.16;5022457;28;97848;-76
2023/04/20 10:57:48;;;;;;;0.65;0.40;;;;;;;22.55;35.89;101699.09;4996960;28;98104;-76
2023/04/20 11:00:17;;;;;;;0.60;0.43;;;;;;;22.56;35.96;101691.72;5023262;28;97132;-76
2023/04/20 11:02:52;;;;;;;0.77;0.40;;;;;;;22.57;36.13;101685.22;5014398;28;96888;-76
2023/04/20 11:05:19;;;;;;;;;;;;;;;22.51;36.22;101679.41;5002450;28;97821;-76
2023/04/20 11:07:57;;;;;;;0.47;0.30;;;;;;;22.52;35.89;101680.25;5012497;28;97154;-76
2023/04/20 11:10:37;;;;;;;0.63;0.45;;;;;;;22.54;36.25;101683.69;5030134;28;96761;-76
2023/04/20 11:13:04;;;;;;;0.57;0.50;;;;;;;22.54;35.86;101674.63;5031222;27;96763;-76
2023/04/20 11:15:34;;;;;;;0.40;0.40;;;;;;;22.54;35.98;101675.47;5021502;27;97669;-76
2023/04/20 11:18:08;;;;;;;0.60;0.50;;;;;;;22.55;36.14;101676.31;5023470;28;97265;-76
2023/04/20 11:20:35;;;;;;;0.35;0.35;;;;;;;22.54;35.96;101677.34;5008524;28;96699;-76
2023/04/20 11:23:03;;;;;;;0.70;0.50;;;;;;;22.54;35.77;101672.72;5026114;28;96838;-76
2023/04/20 11:25:31;;;;;;;0.70;0.40;;;;;;;22.55;36.08;101673.59;5030216;28;98225;-76
2023/04/20 11:28:07;;;;;;;0.55;0.40;;;;;;;22.55;35.77;101666.22;5016625;27;96796;-76
2023/04/20 11:30:41;;;;;;;0.50;0.45;;;;;;;22.55;36.08;101666.22;5013554;28;97524;-76
2023/04/20 11:33:08;;;;;;;0.45;0.38;;;;;;;22.54;35.83;101670.00;5020751;28;96771;-76